Language selection

Weather shortcuts

Eastern Lake Superior: Past 24 Hour Conditions

 

Lake Of the Woods - 45148

05:00 AM EDT 14 June 2024Buoy position: 49.63N 94.57W
Disclaimer

This table is a summary of hourly weather conditions for the past 24 hours.
Please note that these observations might not always be representative of weather conditions over their associated marine area.

Date / Time
(EDT)
Wind(knots) Wave height(m) Wave period(s) Pressure(kPa) Air tempC) Water tempC)
14 June 2024
5:00 SW 3 gusts 4 N/A N/A 101.6 15 17
4:00 SW 2 gusts 2 N/A N/A 101.5 14 17
3:00 W 3 gusts 4 N/A N/A 101.5 15 17
2:00 W 5 gusts 7 N/A N/A 101.5 15 17
1:00 W 2 gusts 2 N/A N/A 101.4 15 17
0:00 WSW 4 gusts 4 0.01 N/A 101.4 16 17
13 June 2024
23:00 W 3 gusts 4 0.01 3.2 101.3 16 17
22:00 NW 2 gusts 3 0.01 1.6 101.3 20 17
21:00 NNW 5 gusts 6 0.03 1.6 101.3 20 17
20:00 N 8 gusts 11 0.04 1.6 101.2 20 17
19:00 NNE 8 gusts 10 0.03 1.6 101.2 19 17
18:00 NNE 8 gusts 15 0.03 1.6 101.1 19 17
17:00 N 5 gusts 8 0.03 1.7 101.1 18 17
16:00 NNE 6 gusts 8 0.06 1.7 101.1 16 17
15:00 N 8 gusts 10 0.06 1.7 101.0 16 16
14:00 N 10 gusts 14 0.08 1.6 101.0 15 16
13:00 NW 9 gusts 12 0.07 1.6 100.9 15 16
12:00 NW 9 gusts 12 0.13 1.6 100.8 16 16
11:00 W 9 gusts 15 0.08 1.6 100.7 15 16
10:00 W 7 gusts 9 0.07 1.6 100.7 14 17
9:00 W 7 gusts 10 0.04 1.6 100.6 14 17
8:00 W 7 gusts 9 0.03 1.6 100.6 13 17
7:00 W 7 gusts 8 0.05 1.8 100.5 14 17
6:00 W 8 gusts 9 0.01 1.7 100.5 14 17
5:00 WNW 6 gusts 8 0.02 1.6 100.4 14 17

Zoom-in to make a selection

Map of Great Lakes - Lake Superior marine weather areas Mid Superior - 45001 East Superior - 45004 West Superior - 45006 Slate Island - 45136 Lake Of the Woods - 45148 Kenora Airport Royal Island Armstrong Airport Caribou Island Marathon Airport Pukaskwa National Park Thunder Bay Airport Welcome Island Little Flatland Island Sault Ste. Marie Airport Wawa Airport
Legend:
buoy Buoy
land station Land Station

Great Lakes - Lake Superior Area

Another Region

Features

New Predicting and Alerting Coastal Flooding Program

Find out about coastal flooding coverage, forecasts and warnings in your region

Date modified: